RJFM

Miyazaki Airport

Miyazaki, Japan
TAF RJFM 161708Z 1618/1800 25003KT 9999 FEW030 BECMG 1623/1701 12011KT BECMG 1709/1712 26005KT
Issued Valid From Valid To
Jul-16 @ 17:08 UTC
(3 hours ago)
Jul-16 @ 18:00 UTC
(2 hours ago)
Jul-18 @ 00:00 UTC
(-1 days ago)
Jul-16 @ 18:00 to Jul-16 @ 23:00
TAF RJFM 161708Z 1618/1800 25003KT 9999 FEW030
Wind Visibility Clouds
250° at 3 knots 10,000+ meters
  • Few at 3,000' AGL
Becoming Jul-16 @ 23:00 to Jul-17 @ 09:00
BECMG 1623/1701 12011KT
Wind Visibility Clouds
120° at 11 knots 10,000+ meters
  • Few at 3,000' AGL
Becoming Jul-17 @ 09:00 to Jul-18 @ 00:00
BECMG 1709/1712 26005KT
Wind Visibility Clouds
260° at 5 knots 10,000+ meters
  • Few at 3,000' AGL
TAF RJFM 161708Z 1618/1800 25003KT 9999 FEW030 BECMG 1623/1701 12011KT BECMG 1709/1712 26005KT
Issued Jul-16 @ 17:08 UTC
(3 hours ago)
Valid From Jul-16 @ 18:00 UTC
(2 hours ago)
Valid To Jul-18 @ 00:00 UTC
(-1 days ago)
Jul-16 @ 18:00 - Jul-16 @ 23:00
Wind Visibility
250° at 3 knots 10,000+ meters
Clouds
  • Few at 3,000' AGL
Becoming Jul-16 @ 23:00 - Jul-17 @ 09:00
Wind Visibility
120° at 11 knots 10,000+ meters
Clouds
  • Few at 3,000' AGL
Becoming Jul-17 @ 09:00 - Jul-18 @ 00:00
Wind Visibility
260° at 5 knots 10,000+ meters
Clouds
  • Few at 3,000' AGL